Time;durP1;ratioP1;P1;durP2;ratioP2;P2;SDS_P1;SDS_P2;PMS_P1;PMS_P2;Temp;Humidity;BMP_temperature;BMP_pressure;BME280_temperature;BME280_humidity;BME280_pressure;Samples;Min_cycle;Max_cycle;Signal;HPM_P1;HPM_P2
2024/04/10 00:00:28;;;;;;;11.50;2.88;;;;;;;13.51;50.51;101917.06;5367800;26;112311;-80
2024/04/10 00:02:56;;;;;;;14.32;2.83;;;;;;;13.48;50.53;101914.50;5360731;26;112711;-80
2024/04/10 00:05:23;;;;;;;13.85;2.70;;;;;;;13.44;50.50;101922.59;5367464;26;121363;-79
2024/04/10 00:07:51;;;;;;;12.40;2.97;;;;;;;13.42;50.70;101929.78;5342467;26;121898;-79
2024/04/10 00:10:18;;;;;;;12.43;2.45;;;;;;;13.40;50.58;101928.97;5367117;26;114248;-82
2024/04/10 00:12:45;;;;;;;9.75;2.70;;;;;;;13.37;50.50;101931.78;5335910;26;112903;-80
2024/04/10 00:15:13;;;;;;;14.82;3.33;;;;;;;13.34;50.64;101937.22;5365487;26;121941;-81
2024/04/10 00:17:41;;;;;;;12.63;2.72;;;;;;;13.31;50.65;101937.31;5334125;26;122082;-81
2024/04/10 00:20:09;;;;;;;14.85;3.78;;;;;;;13.30;50.70;101940.94;5362303;26;113715;-81
2024/04/10 00:22:36;;;;;;;12.10;2.80;;;;;;;13.27;50.67;101943.66;5362526;26;116857;-80
2024/04/10 00:25:03;;;;;;;11.93;2.67;;;;;;;13.26;50.73;101941.94;5362250;26;122497;-79
2024/04/10 00:27:31;;;;;;;12.18;3.10;;;;;;;13.23;50.77;101944.72;5346409;26;120071;-80
2024/04/10 00:29:58;;;;;;;12.18;2.72;;;;;;;13.20;50.77;101953.69;5329544;26;113290;-80
2024/04/10 00:32:26;;;;;;;22.17;3.60;;;;;;;13.18;50.79;101954.66;5359030;26;113497;-80
2024/04/10 00:34:54;;;;;;;8.93;2.72;;;;;;;13.16;50.76;101959.16;5362476;26;121521;-79
2024/04/10 00:37:21;;;;;;;11.93;2.53;;;;;;;13.13;50.84;101961.94;5336040;26;121635;-80
2024/04/10 00:39:48;;;;;;;13.55;2.72;;;;;;;13.11;50.98;101961.13;5359297;26;112265;-80
2024/04/10 00:42:16;;;;;;;13.80;2.70;;;;;;;13.08;50.95;101961.25;5341266;26;109908;-80
2024/04/10 00:44:52;;;;;;;10.85;2.97;;;;;;;13.03;51.25;101970.28;5363167;26;121074;-81
2024/04/10 00:47:20;;;;;;;10.48;3.05;;;;;;;13.02;51.00;101979.16;5358146;26;122203;-80
2024/04/10 00:49:47;;;;;;;11.02;2.70;;;;;;;12.99;51.11;101981.94;5334394;26;115428;-79
2024/04/10 00:52:16;;;;;;;10.93;2.85;;;;;;;12.96;51.23;101984.72;5338856;26;111340;-80
2024/04/10 00:54:45;;;;;;;12.23;2.95;;;;;;;12.94;51.03;101985.69;5360447;26;123154;-80
2024/04/10 00:57:13;;;;;;;14.90;2.88;;;;;;;12.93;51.43;101987.47;5359573;26;123601;-80
2024/04/10 00:59:40;;;;;;;11.65;2.85;;;;;;;12.90;51.14;101990.25;5361992;26;111271;-80
2024/04/10 01:02:08;;;;;;;13.48;2.97;;;;;;;12.87;51.46;101995.69;5365309;26;112748;-82
2024/04/10 01:04:35;;;;;;;15.20;3.45;;;;;;;12.84;51.43;101990.47;5351090;26;122235;-80
2024/04/10 01:07:07;;;;;;;11.93;3.05;;;;;;;12.83;51.57;101999.38;5368526;26;120946;-79
2024/04/10 01:09:34;;;;;;;10.50;3.05;;;;;;;12.80;51.60;102002.16;5337258;26;113346;-80
2024/04/10 01:12:01;;;;;;;11.95;2.97;;;;;;;12.78;51.65;102006.66;5355904;26;112035;-79
2024/04/10 01:14:29;;;;;;;13.80;3.28;;;;;;;12.76;51.64;102008.50;5362225;26;122212;-79
2024/04/10 01:16:56;;;;;;;11.43;2.70;;;;;;;12.74;51.67;102015.66;5352618;26;122186;-80
2024/04/10 01:19:24;;;;;;;12.57;3.35;;;;;;;12.71;51.62;102015.75;5363246;26;112599;-80
2024/04/10 01:21:51;;;;;;;11.70;3.08;;;;;;;12.69;51.77;102012.28;5359301;26;112090;-80
2024/04/10 01:24:18;;;;;;;10.32;3.10;;;;;;;12.65;51.90;102012.38;5367198;26;122014;-80
2024/04/10 01:26:45;;;;;;;11.02;2.90;;;;;;;12.63;51.89;102019.56;5350294;26;122300;-80
2024/04/10 01:29:13;;;;;;;12.43;2.90;;;;;;;12.62;51.91;102012.53;5362004;26;111242;-79
2024/04/10 01:31:40;;;;;;;13.98;2.67;;;;;;;12.59;52.05;102023.25;5338815;26;112709;-80
2024/04/10 01:34:07;;;;;;;9.77;3.40;;;;;;;12.58;52.30;102025.94;5359793;26;122572;-80
2024/04/10 01:36:35;;;;;;;11.77;2.75;;;;;;;12.55;52.19;102026.94;5368304;26;120976;-80
2024/04/10 01:39:03;;;;;;;16.10;3.13;;;;;;;12.52;52.23;102027.03;5360881;26;112430;-80
2024/04/10 01:41:31;;;;;;;12.05;3.10;;;;;;;12.52;52.25;102027.03;5338880;26;112064;-79
2024/04/10 01:43:58;;;;;;;15.85;3.20;;;;;;;12.51;52.54;102035.94;5359883;26;121273;-80
2024/04/10 01:46:26;;;;;;;13.20;3.05;;;;;;;12.51;52.23;102041.25;5369427;26;122289;-79
2024/04/10 01:48:53;;;;;;;12.00;3.22;;;;;;;12.51;52.40;102046.56;5341216;26;111544;-80
2024/04/10 01:51:20;;;;;;;15.32;2.95;;;;;;;12.52;52.47;102056.25;5359254;26;111880;-80
2024/04/10 01:53:47;;;;;;;16.13;3.40;;;;;;;12.55;52.56;102061.47;5361295;26;122235;-81
2024/04/10 01:56:15;;;;;;;15.02;3.33;;;;;;;12.55;52.55;102064.13;5357776;26;121559;-80
2024/04/10 01:58:42;;;;;;;11.95;3.10;;;;;;;12.56;52.69;102071.16;5337582;26;114029;-79
2024/04/10 02:01:10;;;;;;;13.10;3.10;;;;;;;12.57;52.96;102078.25;5324305;26;113738;-79
2024/04/10 02:03:37;;;;;;;12.07;3.20;;;;;;;12.59;52.71;102081.72;5363956;26;121862;-80
2024/04/10 02:06:04;;;;;;;12.40;3.42;;;;;;;12.60;52.88;102094.09;5353115;26;120933;-80
2024/04/10 02:08:32;;;;;;;12.75;2.80;;;;;;;12.61;53.10;102090.50;5340668;26;114334;-79
2024/04/10 02:11:19;;;;;;;13.07;3.42;;;;;;;12.62;53.11;102097.56;5354516;26;111848;-80
2024/04/10 02:13:47;;;;;;;10.65;2.47;;;;;;;12.65;53.29;102101.91;5361923;26;121278;-80
2024/04/10 02:16:14;;;;;;;13.68;3.35;;;;;;;12.66;52.99;102104.50;5364296;26;123067;-80
2024/04/10 02:18:42;;;;;;;10.65;3.10;;;;;;;12.66;53.54;102101.84;5365897;26;113654;-80
2024/04/10 02:21:09;;;;;;;11.02;3.08;;;;;;;12.66;53.67;102104.50;5335153;26;112865;-80
2024/04/10 02:23:37;;;;;;;12.48;3.30;;;;;;;12.69;53.70;102115.97;5366308;26;121314;-80
2024/04/10 02:26:09;;;;;;;10.07;3.38;;;;;;;12.70;53.86;102120.38;5369178;26;123101;-81
2024/04/10 02:28:36;;;;;;;11.30;2.92;;;;;;;12.71;53.97;102122.09;5367067;26;113140;-80
2024/04/10 02:31:04;;;;;;;13.35;3.25;;;;;;;12.74;53.99;102117.53;5359097;26;113001;-80
2024/04/10 02:33:37;;;;;;;13.10;3.40;;;;;;;12.76;54.25;102125.47;5365475;26;122894;-80
2024/04/10 02:36:06;;;;;;;13.38;3.17;;;;;;;12.79;54.07;102130.66;5376466;26;122518;-80
2024/04/10 02:38:35;;;;;;;10.13;3.30;;;;;;;12.80;54.07;102132.41;5345877;26;111513;-79
2024/04/10 02:41:04;;;;;;;15.60;3.63;;;;;;;12.81;54.12;102139.50;5360047;26;111295;-80
2024/04/10 02:43:32;;;;;;;9.63;3.20;;;;;;;12.82;54.29;102147.38;5354011;26;122634;-81
2024/04/10 02:46:01;;;;;;;11.13;3.17;;;;;;;12.83;54.30;102148.28;5345664;26;121333;-80
2024/04/10 02:48:29;;;;;;;13.95;3.53;;;;;;;12.84;54.30;102155.31;5342159;26;112660;-80
2024/04/10 02:50:56;;;;;;;9.60;2.80;;;;;;;12.84;54.23;102150.00;5347337;26;112037;-79
2024/04/10 02:53:24;;;;;;;10.75;2.83;;;;;;;12.83;54.13;102159.78;5365265;26;122354;-81
2024/04/10 02:55:53;;;;;;;12.35;2.95;;;;;;;12.83;54.28;102164.22;5377993;26;120624;-80
2024/04/10 02:58:21;;;;;;;11.40;3.22;;;;;;;12.83;54.34;102169.56;5367686;26;110905;-80
2024/04/10 03:00:51;;;;;;;10.73;3.20;;;;;;;12.84;54.54;102171.28;5360565;26;111541;-80
2024/04/10 03:03:19;;;;;;;10.02;2.78;;;;;;;12.84;54.61;102181.91;5343660;26;120707;-79
2024/04/10 03:05:58;;;;;;;10.43;2.95;;;;;;;12.83;54.51;102185.50;5334604;26;118554;-80
2024/04/10 03:08:25;;;;;;;9.50;2.90;;;;;;;12.83;54.36;102183.69;5373765;26;112469;-78
2024/04/10 03:10:53;;;;;;;9.77;2.88;;;;;;;12.82;54.59;102189.06;5360469;26;111937;-79
2024/04/10 03:13:20;;;;;;;7.07;2.83;;;;;;;12.80;54.62;102201.53;5361095;26;122634;-81
2024/04/10 03:15:47;;;;;;;10.05;2.92;;;;;;;12.79;54.61;102199.78;5355982;26;121505;-80
2024/04/10 03:18:16;;;;;;;12.40;3.03;;;;;;;12.77;54.78;102197.22;5374145;26;112778;-79
2024/04/10 03:20:44;;;;;;;8.43;3.05;;;;;;;12.77;54.85;102206.94;5358947;26;112416;-81
2024/04/10 03:23:12;;;;;;;8.05;2.88;;;;;;;12.76;54.78;102215.88;5365869;26;122872;-79
2024/04/10 03:25:39;;;;;;;9.15;3.35;;;;;;;12.75;54.82;102209.69;5356665;26;122396;-79
2024/04/10 03:28:06;;;;;;;11.98;3.10;;;;;;;12.75;55.10;102225.63;5371994;26;112665;-80
2024/04/10 03:30:33;;;;;;;10.68;3.15;;;;;;;12.75;54.90;102219.41;5374457;26;111894;-80
2024/04/10 03:33:01;;;;;;;9.27;3.22;;;;;;;12.74;54.92;102228.34;5345611;26;121034;-80
2024/04/10 03:35:29;;;;;;;9.13;2.58;;;;;;;12.73;55.13;102226.59;5369138;26;121396;-80
2024/04/10 03:37:56;;;;;;;13.20;3.20;;;;;;;12.73;55.24;102237.22;5356618;26;112599;-78
2024/04/10 03:40:24;;;;;;;8.35;2.83;;;;;;;12.70;55.37;102237.34;5370417;26;112735;-80
2024/04/10 03:42:53;;;;;;;11.35;3.63;;;;;;;12.68;55.39;102240.03;5364629;26;121286;-80
2024/04/10 03:45:20;;;;;;;8.73;3.10;;;;;;;12.66;55.65;102237.41;5360445;26;122467;-80
2024/04/10 03:47:49;;;;;;;9.35;3.03;;;;;;;12.66;55.30;102247.19;5378058;26;112977;-79
2024/04/10 03:50:16;;;;;;;12.23;3.30;;;;;;;12.65;55.64;102254.28;5349220;26;111635;-80
2024/04/10 03:52:45;;;;;;;9.13;3.22;;;;;;;12.65;55.71;102256.94;5346573;26;122301;-80
2024/04/10 03:55:13;;;;;;;12.32;3.22;;;;;;;12.64;55.48;102259.66;5363462;26;122029;-81
2024/04/10 03:57:40;;;;;;;10.00;3.72;;;;;;;12.64;55.68;102268.50;5363690;26;112501;-79
2024/04/10 04:00:10;;;;;;;9.50;3.90;;;;;;;12.66;55.78;102274.63;5369341;26;112136;-80
2024/04/10 04:02:44;;;;;;;11.23;3.80;;;;;;;12.66;55.98;102269.31;5352120;26;120571;-80
2024/04/10 04:05:11;;;;;;;6.97;3.30;;;;;;;12.66;55.93;102285.25;5345429;26;122500;-79
2024/04/10 04:07:39;;;;;;;11.57;4.15;;;;;;;12.66;55.91;102279.94;5349426;26;111938;-80
2024/04/10 04:10:06;;;;;;;6.32;3.00;;;;;;;12.66;55.77;102287.91;5371281;26;110641;-80
2024/04/10 04:12:34;;;;;;;8.45;3.28;;;;;;;12.69;55.69;102286.09;5373738;26;121601;-80
2024/04/10 04:15:02;;;;;;;7.72;2.35;;;;;;;12.69;55.74;102288.75;5337873;26;122109;-80
2024/04/10 04:17:29;;;;;;;8.25;2.70;;;;;;;12.69;55.61;102294.06;5347448;26;112153;-79
2024/04/10 04:19:57;;;;;;;4.90;2.25;;;;;;;12.69;55.47;102299.38;5340393;26;113633;-80
2024/04/10 04:22:24;;;;;;;8.63;2.85;;;;;;;12.71;55.74;102308.16;5376979;26;121860;-80
2024/04/10 04:24:52;;;;;;;8.27;2.70;;;;;;;12.70;55.66;102317.94;5349145;26;121716;-79
2024/04/10 04:27:19;;;;;;;12.23;3.35;;;;;;;12.71;55.86;102313.50;5371808;26;112704;-80
2024/04/10 04:29:47;;;;;;;8.73;2.70;;;;;;;12.71;55.70;102318.81;5341469;26;112419;-79
2024/04/10 04:32:15;;;;;;;9.10;2.80;;;;;;;12.74;55.55;102321.38;5345187;26;121261;-80
2024/04/10 04:34:42;;;;;;;11.98;2.53;;;;;;;12.75;55.74;102325.75;5374831;26;121105;-80
2024/04/10 04:37:10;;;;;;;6.43;2.63;;;;;;;12.74;55.45;102329.34;5343207;26;110436;-80
2024/04/10 04:39:37;;;;;;;8.52;2.92;;;;;;;12.71;55.51;102334.75;5350444;26;111729;-80
2024/04/10 04:42:04;;;;;;;9.05;2.40;;;;;;;12.73;55.64;102343.56;5361109;26;121532;-80
2024/04/10 04:44:32;;;;;;;7.82;2.58;;;;;;;12.72;55.55;102352.47;5376640;26;122830;-80
2024/04/10 04:47:00;;;;;;;6.22;2.13;;;;;;;12.73;55.44;102362.16;5336266;26;111663;-80
2024/04/10 04:49:27;;;;;;;6.63;2.30;;;;;;;12.73;55.34;102365.69;5372544;26;112714;-80
2024/04/10 04:51:55;;;;;;;6.30;2.53;;;;;;;12.74;55.23;102366.56;5376969;26;121547;-80
2024/04/10 04:54:22;;;;;;;5.60;2.25;;;;;;;12.74;55.17;102380.72;5308379;26;121076;-80
2024/04/10 04:56:49;;;;;;;8.05;2.08;;;;;;;12.75;55.19;102379.84;5365384;26;112657;-79
2024/04/10 04:59:17;;;;;;;6.95;1.90;;;;;;;12.75;55.31;102384.25;5329528;26;111346;-79
2024/04/10 05:01:44;;;;;;;8.55;2.53;;;;;;;12.75;55.42;102378.94;5365448;26;123085;-80
2024/04/10 05:06:57;;;;;;;;;;;;;;;12.74;54.99;102393.16;5359375;26;112848;-80
2024/04/10 05:09:25;;;;;;;4.55;1.83;;;;;;;12.75;55.04;102393.13;5367933;26;112268;-81
2024/04/10 05:11:53;;;;;;;7.20;2.30;;;;;;;12.75;55.17;102394.88;5356766;26;122431;-80
2024/04/10 05:14:21;;;;;;;6.50;1.90;;;;;;;12.75;55.31;102400.19;5371411;26;121116;-81
2024/04/10 05:16:48;;;;;;;7.28;1.75;;;;;;;12.76;55.08;102407.28;5386365;26;113968;-80
2024/04/10 05:19:16;;;;;;;6.97;2.00;;;;;;;12.76;55.40;102408.13;5375869;25;113664;-79
2024/04/10 05:21:43;;;;;;;8.45;2.10;;;;;;;12.78;55.21;102410.75;5373778;26;121461;-81
2024/04/10 05:24:10;;;;;;;6.95;2.58;;;;;;;12.80;55.21;102409.78;5374177;26;122422;-81
2024/04/10 05:26:38;;;;;;;5.45;2.10;;;;;;;12.82;55.21;102423.91;5369047;26;112157;-80
2024/04/10 05:29:05;;;;;;;6.80;2.15;;;;;;;12.86;55.19;102427.34;5373527;26;111622;-80
2024/04/10 05:31:35;;;;;;;6.28;1.85;;;;;;;12.88;55.28;102428.19;5363436;26;121623;-80
2024/04/10 05:34:03;;;;;;;5.35;2.10;;;;;;;12.91;55.08;102433.41;5347355;26;122488;-80
2024/04/10 05:36:31;;;;;;;6.70;2.00;;;;;;;12.92;55.34;102445.81;5366944;26;113351;-79
2024/04/10 05:39:00;;;;;;;7.07;2.05;;;;;;;12.95;55.14;102455.47;5374295;26;112100;-79
2024/04/10 05:41:27;;;;;;;8.18;1.80;;;;;;;12.97;54.93;102459.81;5367221;26;121228;-80
2024/04/10 05:43:55;;;;;;;6.60;2.00;;;;;;;12.98;55.20;102461.59;5360645;26;122279;-79
2024/04/10 05:46:24;;;;;;;4.50;2.15;;;;;;;12.99;55.22;102473.94;5347623;26;110622;-81
2024/04/10 05:48:52;;;;;;;8.82;2.13;;;;;;;13.01;54.89;102476.56;5359508;26;113250;-80
2024/04/10 05:51:19;;;;;;;6.90;2.10;;;;;;;13.00;54.85;102475.69;5367421;26;121586;-79
2024/04/10 05:53:47;;;;;;;8.13;1.73;;;;;;;13.01;54.88;102480.09;5356336;26;124305;-80
2024/04/10 05:56:15;;;;;;;5.93;2.13;;;;;;;13.02;55.16;102487.16;5336802;26;110495;-80
2024/04/10 05:58:43;;;;;;;4.95;2.20;;;;;;;13.05;55.24;102484.44;5376011;26;111882;-80
2024/04/10 06:01:11;;;;;;;7.05;2.33;;;;;;;13.05;55.24;102489.75;5375648;26;123266;-80
2024/04/10 06:03:50;;;;;;;6.63;1.80;;;;;;;13.05;55.22;102500.38;5366103;26;122627;-80
2024/04/10 06:06:18;;;;;;;7.22;2.25;;;;;;;13.05;54.91;102504.81;5333534;26;113685;-80
2024/04/10 06:08:45;;;;;;;5.80;2.35;;;;;;;13.08;55.08;102506.53;5365387;26;112326;-80
2024/04/10 06:11:13;;;;;;;4.68;2.33;;;;;;;13.10;54.99;102515.34;5324688;26;119607;-82
2024/04/10 06:13:40;;;;;;;9.13;1.88;;;;;;;13.11;54.92;102520.63;5372106;26;121967;-82
2024/04/10 06:16:08;;;;;;;8.25;2.10;;;;;;;13.12;55.27;102516.16;5350513;26;111679;-80
2024/04/10 06:18:36;;;;;;;5.88;2.28;;;;;;;13.12;54.84;102526.81;5370567;26;112016;-82
2024/04/10 06:21:04;;;;;;;6.20;2.30;;;;;;;13.12;55.00;102533.00;5333018;26;121012;-80
2024/04/10 06:23:32;;;;;;;3.45;1.73;;;;;;;13.14;54.94;102535.59;5339675;26;123173;-80
2024/04/10 06:26:00;;;;;;;7.43;2.08;;;;;;;13.13;54.67;102536.50;5331785;26;112377;-80
2024/04/10 06:28:28;;;;;;;3.85;1.77;;;;;;;13.12;55.11;102538.31;5352295;26;112780;-82
2024/04/10 06:30:56;;;;;;;3.75;1.65;;;;;;;13.14;54.88;102556.91;5323218;26;121531;-81
2024/04/10 06:33:24;;;;;;;8.60;2.30;;;;;;;13.14;54.98;102552.44;5364728;26;121669;-81
2024/04/10 06:35:52;;;;;;;8.10;2.05;;;;;;;13.15;55.13;102559.53;5364612;26;111519;-80
2024/04/10 06:38:19;;;;;;;10.35;2.33;;;;;;;13.18;55.08;102563.88;5338913;26;111362;-81
2024/04/10 06:40:57;;;;;;;6.78;2.15;;;;;;;13.19;54.81;102568.28;5363679;26;122116;-80
2024/04/10 06:43:25;;;;;;;7.15;2.17;;;;;;;13.19;54.69;102576.28;5313997;26;121850;-80
2024/04/10 06:46:02;;;;;;;5.60;1.83;;;;;;;13.20;54.80;102578.00;5359148;26;111936;-81
2024/04/10 06:48:30;;;;;;;8.63;2.10;;;;;;;13.20;54.74;102585.97;5327115;26;112890;-80
2024/04/10 06:51:02;;;;;;;6.82;2.03;;;;;;;13.20;54.99;102578.00;5357456;26;123110;-80
2024/04/10 06:53:29;;;;;;;6.45;2.30;;;;;;;13.22;54.81;102582.38;5347072;26;122139;-81
2024/04/10 06:55:59;;;;;;;4.53;2.10;;;;;;;13.24;55.08;102582.31;5329593;26;111705;-80
2024/04/10 06:58:28;;;;;;;6.47;2.45;;;;;;;13.29;55.07;102580.41;5329110;26;111951;-81
2024/04/10 07:00:59;;;;;;;5.97;2.47;;;;;;;13.41;55.32;102585.41;5326752;26;121755;-80
2024/04/10 07:03:27;;;;;;;9.98;2.50;;;;;;;13.57;55.42;102587.63;5363578;26;121654;-81
2024/04/10 07:06:14;;;;;;;9.73;2.50;;;;;;;13.76;55.42;102598.59;5353485;26;111060;-82
2024/04/10 07:08:43;;;;;;;7.47;2.30;;;;;;;13.93;55.28;102590.09;5341158;26;113028;-81
2024/04/10 07:11:15;;;;;;;3.85;2.25;;;;;;;14.04;55.04;102593.28;5350251;26;122055;-80
2024/04/10 07:13:48;;;;;;;8.57;2.67;;;;;;;14.14;54.96;102605.38;5353146;26;122185;-82
2024/04/10 07:16:17;;;;;;;4.85;2.20;;;;;;;14.27;55.02;102605.88;5319468;26;112787;-82
2024/04/10 07:18:45;;;;;;;5.30;2.40;;;;;;;14.39;55.06;102604.59;5329702;26;112431;-82
2024/04/10 07:21:16;;;;;;;8.25;2.58;;;;;;;14.55;55.10;102610.31;5328927;26;121128;-81
2024/04/10 07:23:47;;;;;;;9.60;2.20;;;;;;;14.68;54.90;102616.13;5324593;26;122222;-81
2024/04/10 07:26:20;;;;;;;8.90;2.20;;;;;;;14.77;54.42;102619.34;5359501;26;111301;-81
2024/04/10 07:28:50;;;;;;;7.80;2.38;;;;;;;14.83;54.59;102610.28;5359338;26;112814;-80
2024/04/10 07:31:20;;;;;;;10.07;2.30;;;;;;;14.93;54.43;102611.69;5325384;26;122507;-80
2024/04/10 07:33:51;;;;;;;7.10;2.38;;;;;;;15.04;54.18;102613.97;5346975;26;121840;-80
2024/04/10 07:36:21;;;;;;;6.20;1.92;;;;;;;15.14;54.60;102618.09;5342949;26;112520;-80
2024/04/10 07:38:52;;;;;;;4.88;2.28;;;;;;;15.23;54.14;102619.53;5352152;26;113247;-81
2024/04/10 07:41:20;;;;;;;5.55;2.42;;;;;;;15.34;54.12;102617.34;5331291;26;122245;-79
2024/04/10 07:43:49;;;;;;;8.63;2.30;;;;;;;15.46;54.16;102617.81;5330995;26;120920;-80
2024/04/10 07:46:19;;;;;;;5.55;2.10;;;;;;;15.55;53.89;102625.47;5336109;26;113620;-80
2024/04/10 07:48:48;;;;;;;4.25;2.25;;;;;;;15.62;53.62;102620.81;5337888;26;113992;-80
2024/04/10 07:51:15;;;;;;;6.70;2.13;;;;;;;15.69;53.79;102627.63;5338289;26;122432;-81
2024/04/10 07:53:43;;;;;;;4.75;2.33;;;;;;;15.79;53.44;102628.19;5330892;26;122134;-80
2024/04/10 07:56:12;;;;;;;10.80;2.05;;;;;;;15.89;53.63;102632.25;5348163;26;112653;-81
2024/04/10 07:58:41;;;;;;;6.78;2.63;;;;;;;15.95;53.34;102635.56;5361693;26;112568;-81
2024/04/10 08:01:09;;;;;;;7.07;2.20;;;;;;;16.03;53.30;102632.59;5317054;26;121150;-79
2024/04/10 08:03:37;;;;;;;6.13;2.20;;;;;;;16.13;53.10;102628.59;5352262;26;122198;-80
2024/04/10 08:06:08;;;;;;;7.85;2.30;;;;;;;16.24;53.29;102635.34;5320243;26;110225;-82
2024/04/10 08:08:36;;;;;;;7.15;2.47;;;;;;;16.33;52.91;102642.97;5347888;26;112710;-81
2024/04/10 08:11:07;;;;;;;15.20;2.25;;;;;;;16.42;52.58;102653.28;5326557;26;121448;-83
2024/04/10 08:13:35;;;;;;;8.98;1.95;;;;;;;16.54;52.73;102652.81;5327018;26;122906;-82
2024/04/10 08:16:10;;;;;;;5.43;1.80;;;;;;;16.68;52.76;102651.34;5328783;26;112643;-81
2024/04/10 08:18:40;;;;;;;5.35;1.98;;;;;;;16.80;52.93;102650.84;5357810;26;111379;-81
2024/04/10 08:21:09;;;;;;;5.38;2.30;;;;;;;16.86;52.27;102658.66;5347690;26;123241;-80
2024/04/10 08:23:38;;;;;;;9.00;2.00;;;;;;;16.88;51.71;102658.59;5327085;26;122443;-81
2024/04/10 08:26:24;;;;;;;6.97;1.83;;;;;;;16.87;51.61;102656.84;5341650;26;112713;-81
2024/04/10 08:28:52;;;;;;;;;;;;;;;16.80;51.93;102661.56;5359542;26;112098;-82
2024/04/10 08:31:24;;;;;;;4.18;1.90;;;;;;;16.75;51.54;102668.91;5361484;26;122614;-82
2024/04/10 08:33:52;;;;;;;9.00;2.13;;;;;;;16.69;51.27;102679.88;5325852;26;122106;-80
2024/04/10 08:36:23;;;;;;;5.28;2.03;;;;;;;16.64;51.29;102682.72;5330011;26;113532;-81
2024/04/10 08:38:51;;;;;;;7.65;1.75;;;;;;;16.60;51.34;102686.47;5349251;26;112651;-82
2024/04/10 08:41:20;;;;;;;4.18;1.83;;;;;;;16.60;50.86;102688.28;5355387;26;122371;-81
2024/04/10 08:43:50;;;;;;;4.97;1.65;;;;;;;16.68;51.39;102688.81;5349981;26;122025;-82
2024/04/10 08:46:19;;;;;;;8.10;1.80;;;;;;;16.79;51.25;102691.91;5352021;26;112734;-81
2024/04/10 08:48:48;;;;;;;9.38;1.83;;;;;;;16.86;51.05;102693.44;5331866;26;111148;-80
2024/04/10 08:51:16;;;;;;;7.13;1.67;;;;;;;16.98;51.05;102707.25;5318527;26;121069;-82
2024/04/10 08:53:45;;;;;;;8.23;2.05;;;;;;;17.01;50.60;102712.44;5364966;26;125918;-80
2024/04/10 08:56:15;;;;;;;7.28;2.03;;;;;;;16.95;50.54;102724.28;5334848;26;110417;-77
2024/04/10 08:58:43;;;;;;;5.95;1.75;;;;;;;16.89;50.15;102725.41;5360781;26;112397;-81
2024/04/10 09:01:24;;;;;;;5.90;2.03;;;;;;;16.79;50.04;102713.31;5333590;26;123265;-81
2024/04/10 09:03:51;;;;;;;8.25;2.15;;;;;;;16.71;50.04;102716.31;5354026;26;122114;-81
2024/04/10 09:06:20;;;;;;;9.32;2.30;;;;;;;16.67;50.17;102720.06;5321290;26;112960;-81
2024/04/10 09:09:01;;;;;;;5.70;1.83;;;;;;;16.72;50.23;102727.88;5361971;26;112612;-82
2024/04/10 09:11:28;;;;;;;7.03;1.70;;;;;;;16.76;50.30;102729.50;5354750;26;121899;-81
2024/04/10 09:14:07;;;;;;;4.20;1.75;;;;;;;16.85;50.42;102729.16;5346328;26;122271;-81
2024/04/10 09:16:35;;;;;;;5.93;1.90;;;;;;;16.98;50.47;102731.34;5366901;26;112977;-80
2024/04/10 09:19:15;;;;;;;6.95;1.88;;;;;;;17.01;50.34;102733.88;5356255;26;112182;-77
2024/04/10 09:21:44;;;;;;;10.27;1.80;;;;;;;16.98;49.82;102745.59;5351206;26;122403;-78
2024/04/10 09:24:14;;;;;;;8.85;2.72;;;;;;;16.92;49.70;102738.69;5334841;26;122577;-79
2024/04/10 09:26:48;;;;;;;4.28;1.75;;;;;;;16.93;49.56;102731.50;5340069;26;113275;-80
2024/04/10 09:29:21;;;;;;;4.70;1.40;;;;;;;17.04;50.16;102739.97;5356812;26;112987;-81
2024/04/10 09:31:50;;;;;;;5.60;1.70;;;;;;;17.20;50.15;102745.56;5366872;26;122003;-79
2024/04/10 09:34:20;;;;;;;6.45;1.95;;;;;;;17.39;50.18;102744.78;5354205;26;122505;-78
2024/04/10 09:36:47;;;;;;;6.95;1.80;;;;;;;17.50;49.43;102742.50;5320917;26;112410;-79
2024/04/10 09:39:22;;;;;;;7.82;1.80;;;;;;;17.58;49.65;102745.69;5356783;26;111581;-79
2024/04/10 09:41:59;;;;;;;4.50;1.80;;;;;;;17.68;49.68;102757.75;5335259;26;121412;-79
2024/04/10 09:44:32;;;;;;;4.78;1.45;;;;;;;17.79;49.47;102748.38;5352872;26;123174;-78
2024/04/10 09:47:01;;;;;;;6.38;1.48;;;;;;;17.90;49.24;102756.81;5368261;26;110514;-77
2024/04/10 09:49:40;;;;;;;5.82;1.60;;;;;;;17.96;48.72;102753.84;5371745;26;110627;-78
2024/04/10 09:52:09;;;;;;;2.65;1.25;;;;;;;18.02;48.69;102750.88;5357217;26;121474;-78
2024/04/10 09:54:39;;;;;;;4.57;1.58;;;;;;;18.07;48.26;102746.19;5343840;26;121208;-77
2024/04/10 09:57:10;;;;;;;6.28;1.45;;;;;;;18.15;48.58;102744.97;5358985;26;112113;-78
2024/04/10 09:59:38;;;;;;;5.25;1.55;;;;;;;18.20;48.07;102742.94;5359527;26;111137;-77
2024/04/10 10:02:16;;;;;;;3.50;1.42;;;;;;;18.19;47.69;102738.50;5362413;26;122256;-78
2024/04/10 10:04:44;;;;;;;6.05;1.60;;;;;;;18.23;47.63;102742.78;5327512;26;122486;-78
2024/04/10 10:07:22;;;;;;;4.78;1.30;;;;;;;18.30;47.89;102744.25;5368108;26;113036;-80
2024/04/10 10:09:51;;;;;;;4.70;1.77;;;;;;;18.37;47.77;102740.31;5335935;26;112746;-77
2024/04/10 10:12:28;;;;;;;5.00;1.17;;;;;;;18.40;47.63;102745.56;5355201;26;122010;-78
2024/04/10 10:15:08;;;;;;;4.60;1.27;;;;;;;18.48;47.60;102743.38;5334370;26;123325;-78
2024/04/10 10:17:37;;;;;;;3.30;1.48;;;;;;;18.55;47.33;102748.44;5350910;26;113438;-80
2024/04/10 10:20:23;;;;;;;4.50;1.27;;;;;;;18.67;47.61;102758.59;5359432;26;113168;-80
2024/04/10 10:23:01;;;;;;;5.60;1.30;;;;;;;18.77;47.20;102754.50;5332654;26;122027;-80
2024/04/10 10:25:29;;;;;;;3.20;1.40;;;;;;;18.86;46.85;102764.81;5329482;26;123360;-80
2024/04/10 10:28:10;;;;;;;2.65;1.08;;;;;;;18.96;46.38;102764.34;5355979;26;111474;-80
2024/04/10 10:30:39;;;;;;;8.15;1.30;;;;;;;19.00;46.28;102756.06;5344951;26;112248;-80
2024/04/10 10:33:12;;;;;;;5.23;1.10;;;;;;;19.02;46.17;102753.31;5333301;26;123299;-80
2024/04/10 10:35:39;;;;;;;3.70;1.20;;;;;;;19.04;45.92;102762.16;5340419;26;122947;-80
2024/04/10 10:38:08;;;;;;;4.10;1.20;;;;;;;19.06;46.08;102761.16;5312720;26;112640;-81
2024/04/10 10:40:35;;;;;;;2.45;1.00;;;;;;;19.05;45.55;102763.91;5321540;26;110404;-82
2024/04/10 10:43:04;;;;;;;3.97;1.30;;;;;;;18.95;45.32;102767.97;5350755;26;122087;-81
2024/04/10 10:45:34;;;;;;;4.65;1.30;;;;;;;18.88;45.16;102761.19;5319338;26;122223;-82
2024/04/10 10:48:03;;;;;;;4.70;1.50;;;;;;;18.80;45.01;102767.81;5321173;26;112365;-81
2024/04/10 10:50:31;;;;;;;4.38;1.45;;;;;;;18.70;45.00;102774.53;5358227;26;113488;-81
2024/04/10 10:53:02;;;;;;;3.42;1.33;;;;;;;18.65;45.22;102779.25;5317408;26;122860;-81
2024/04/10 10:55:29;;;;;;;3.85;1.30;;;;;;;18.62;45.25;102774.03;5325709;26;119999;-80
2024/04/10 10:58:05;;;;;;;3.65;1.50;;;;;;;18.62;45.30;102779.41;5321462;26;113951;-81
2024/04/10 11:00:34;;;;;;;2.00;1.02;;;;;;;18.64;45.44;102775.69;5349939;26;110985;-80
2024/04/10 11:03:12;;;;;;;4.15;1.60;;;;;;;18.64;45.05;102780.19;5353997;26;120907;-81
2024/04/10 11:05:51;;;;;;;2.83;1.23;;;;;;;18.57;45.29;102784.09;5345973;26;121260;-81
2024/04/10 11:08:24;;;;;;;5.05;1.27;;;;;;;18.51;44.48;102779.03;5363150;26;112840;-82
2024/04/10 11:10:53;;;;;;;3.35;1.40;;;;;;;18.49;44.62;102785.34;5360247;26;114277;-80
2024/04/10 11:13:20;;;;;;;5.28;1.25;;;;;;;18.51;44.52;102789.78;5320204;26;121204;-83
2024/04/10 11:15:52;;;;;;;3.55;1.13;;;;;;;18.49;44.62;102788.03;5350749;26;121360;-85
2024/04/10 11:18:19;;;;;;;4.38;1.02;;;;;;;18.52;44.54;102780.81;5344390;26;111676;-81
2024/04/10 11:20:49;;;;;;;2.15;1.35;;;;;;;18.58;44.67;102772.44;5350099;26;112442;-81
2024/04/10 11:23:18;;;;;;;3.15;1.10;;;;;;;18.65;44.36;102781.94;5322388;26;122812;-81
2024/04/10 11:25:45;;;;;;;4.22;1.30;;;;;;;18.71;44.40;102780.78;5327078;26;121088;-81